createdAt,value
2022-09-23T00:00:40.936Z,1018.27
2022-09-23T00:01:41.276Z,1018.26
2022-09-23T00:02:41.666Z,1018.26
2022-09-23T00:03:41.822Z,1018.26
2022-09-23T00:04:42.048Z,1018.22
2022-09-23T00:05:42.310Z,1018.22
2022-09-23T00:06:42.552Z,1018.20
2022-09-23T00:07:42.795Z,1018.20
2022-09-23T00:08:43.050Z,1018.21
2022-09-23T00:09:43.305Z,1018.25
2022-09-23T00:10:43.531Z,1018.15
2022-09-23T00:11:43.780Z,1018.19
2022-09-23T00:12:44.034Z,1018.18
2022-09-23T00:13:44.323Z,1018.17
2022-09-23T00:14:44.561Z,1018.08
2022-09-23T00:15:44.779Z,1018.05
2022-09-23T00:16:45.289Z,1018.05
2022-09-23T00:17:45.370Z,1018.03
2022-09-23T00:18:45.602Z,1018.11
2022-09-23T00:19:45.872Z,1018.06
2022-09-23T00:20:46.122Z,1018.08
2022-09-23T00:21:46.380Z,1018.05
2022-09-23T00:22:46.604Z,1018.00
2022-09-23T00:23:46.840Z,1018.06
2022-09-23T00:24:47.082Z,1018.01
2022-09-23T00:25:47.311Z,1018.00
2022-09-23T00:26:47.587Z,1018.06
2022-09-23T00:27:47.855Z,1018.12
2022-09-23T00:28:48.110Z,1018.09
2022-09-23T00:29:48.324Z,1018.07
2022-09-23T00:30:48.631Z,1018.09
2022-09-23T00:31:48.875Z,1018.04
2022-09-23T00:32:49.115Z,1018.06
2022-09-23T00:33:49.341Z,1018.11
2022-09-23T00:34:49.594Z,1018.07
2022-09-23T00:35:49.843Z,1018.02
2022-09-23T00:36:50.088Z,1018.04
2022-09-23T00:37:50.316Z,1018.03
2022-09-23T00:38:50.569Z,1018.05
2022-09-23T00:39:50.772Z,1018.04
2022-09-23T00:40:51.265Z,1018.00
2022-09-23T00:41:51.495Z,1017.99
2022-09-23T00:42:51.709Z,1018.04
2022-09-23T00:43:52.057Z,1018.05
2022-09-23T00:44:52.321Z,1018.06
2022-09-23T00:45:52.609Z,1018.00
2022-09-23T00:46:52.867Z,1017.96
2022-09-23T00:47:53.188Z,1018.03
2022-09-23T00:48:53.419Z,1017.99
2022-09-23T00:49:53.669Z,1018.02
2022-09-23T00:50:53.931Z,1017.97
2022-09-23T00:51:54.176Z,1017.99
2022-09-23T00:52:54.463Z,1017.93
2022-09-23T00:53:54.724Z,1017.99
2022-09-23T00:54:54.992Z,1017.94
2022-09-23T00:55:55.279Z,1017.99
2022-09-23T00:56:55.597Z,1017.94
2022-09-23T00:57:55.808Z,1017.93
2022-09-23T00:58:56.089Z,1017.93
2022-09-23T00:59:56.328Z,1017.92
2022-09-23T01:00:56.740Z,1017.92
2022-09-23T01:01:56.892Z,1017.88
2022-09-23T01:02:58.097Z,1017.85
2022-09-23T01:03:57.399Z,1017.85
2022-09-23T01:04:57.672Z,1017.88
2022-09-23T01:05:57.981Z,1017.87
2022-09-23T01:06:58.204Z,1017.87
2022-09-23T01:07:58.442Z,1017.78
2022-09-23T01:08:58.755Z,1017.85
2022-09-23T01:09:59.003Z,1017.81
2022-09-23T01:10:59.262Z,1017.79
2022-09-23T01:11:59.502Z,1017.83
2022-09-23T01:12:59.782Z,1017.79
2022-09-23T01:14:00.008Z,1017.80
2022-09-23T01:15:00.241Z,1017.81
2022-09-23T01:16:00.502Z,1017.83
2022-09-23T01:17:00.786Z,1017.77
2022-09-23T01:18:01.023Z,1017.80
2022-09-23T01:19:01.279Z,1017.74
2022-09-23T01:20:01.494Z,1017.77
2022-09-23T01:21:01.853Z,1017.73
2022-09-23T01:22:02.093Z,1017.74
2022-09-23T01:23:02.333Z,1017.70
2022-09-23T01:24:02.657Z,1017.71
2022-09-23T01:25:02.894Z,1017.69
2022-09-23T01:26:03.137Z,1017.67
2022-09-23T01:27:03.366Z,1017.60
2022-09-23T01:28:03.597Z,1017.60
2022-09-23T01:29:04.001Z,1017.59
2022-09-23T01:30:04.271Z,1017.57
2022-09-23T01:31:04.587Z,1017.58
2022-09-23T01:32:04.876Z,1017.60
2022-09-23T01:33:05.107Z,1017.64
2022-09-23T01:34:05.329Z,1017.57
2022-09-23T01:35:05.696Z,1017.62
2022-09-23T01:36:05.909Z,1017.62
2022-09-23T01:37:06.242Z,1017.57
2022-09-23T01:38:06.586Z,1017.63
2022-09-23T01:39:07.101Z,1017.62
2022-09-23T01:40:07.286Z,1017.59
2022-09-23T01:41:07.509Z,1017.59
2022-09-23T01:42:07.846Z,1017.61
2022-09-23T01:43:08.188Z,1017.57
2022-09-23T01:44:08.475Z,1017.56
2022-09-23T01:45:08.747Z,1017.50
2022-09-23T01:46:08.997Z,1017.57
2022-09-23T01:47:09.262Z,1017.56
2022-09-23T01:48:09.536Z,1017.52
2022-09-23T01:49:09.809Z,1017.52
2022-09-23T01:50:10.078Z,1017.51
2022-09-23T01:51:10.326Z,1017.51
2022-09-23T01:52:10.518Z,1017.52
2022-09-23T01:53:10.927Z,1017.49
2022-09-23T01:54:11.171Z,1017.52
2022-09-23T01:55:11.572Z,1017.48
2022-09-23T01:56:11.660Z,1017.45
2022-09-23T01:57:11.891Z,1017.49
2022-09-23T01:58:12.119Z,1017.46
2022-09-23T01:59:12.369Z,1017.43
2022-09-23T02:00:12.650Z,1017.42
2022-09-23T02:01:12.934Z,1017.45
2022-09-23T02:02:13.193Z,1017.44
2022-09-23T02:03:13.413Z,1017.43
2022-09-23T02:04:21.380Z,1017.47
2022-09-23T02:05:13.954Z,1017.43
2022-09-23T02:06:14.297Z,1017.42
2022-09-23T02:07:14.522Z,1017.43
2022-09-23T02:08:14.866Z,1017.48
2022-09-23T02:09:15.204Z,1017.46
2022-09-23T02:10:15.547Z,1017.50
2022-09-23T02:11:15.754Z,1017.49
2022-09-23T02:12:16.092Z,1017.42
2022-09-23T02:13:16.309Z,1017.44
2022-09-23T02:14:16.658Z,1017.44
2022-09-23T02:15:17.026Z,1017.41
2022-09-23T02:16:17.244Z,1017.45
2022-09-23T02:17:17.510Z,1017.38
2022-09-23T02:18:17.729Z,1017.32
2022-09-23T02:19:18.064Z,1017.39
2022-09-23T02:20:18.388Z,1017.43
2022-09-23T02:21:18.716Z,1017.40
2022-09-23T02:22:19.117Z,1017.43
2022-09-23T02:23:19.399Z,1017.32
2022-09-23T02:24:19.765Z,1017.34
2022-09-23T02:25:19.850Z,1017.31
2022-09-23T02:26:20.376Z,1017.36
2022-09-23T02:27:20.440Z,1017.26
2022-09-23T02:28:20.650Z,1017.32
2022-09-23T02:29:20.991Z,1017.25
2022-09-23T02:30:21.354Z,1017.25
2022-09-23T02:31:21.645Z,1017.21
2022-09-23T02:32:21.884Z,1017.24
2022-09-23T02:33:22.208Z,1017.20
2022-09-23T02:34:22.532Z,1017.27
2022-09-23T02:35:22.884Z,1017.16
2022-09-23T02:36:23.153Z,1017.19
2022-09-23T02:37:23.356Z,1017.18
2022-09-23T02:38:23.692Z,1017.17
2022-09-23T02:39:24.014Z,1017.14
2022-09-23T02:40:24.415Z,1017.16
2022-09-23T02:41:24.631Z,1017.21
2022-09-23T02:42:24.993Z,1017.14
2022-09-23T02:43:25.304Z,1017.26
2022-09-23T02:44:25.643Z,1017.12
2022-09-23T02:45:25.991Z,1017.17
2022-09-23T02:46:26.212Z,1017.12
2022-09-23T02:47:26.433Z,1017.10
2022-09-23T02:48:26.772Z,1017.17
2022-09-23T02:49:27.102Z,1017.23
2022-09-23T02:50:27.470Z,1017.13
2022-09-23T02:51:27.716Z,1017.15
2022-09-23T02:52:28.032Z,1017.11
2022-09-23T02:53:28.354Z,1017.03
2022-09-23T02:54:28.723Z,1017.14
2022-09-23T02:55:28.950Z,1017.09
2022-09-23T02:56:30.164Z,1017.08
2022-09-23T02:57:29.452Z,1017.03
2022-09-23T02:58:29.665Z,1017.03
2022-09-23T02:59:30.032Z,1017.04
2022-09-23T03:00:30.523Z,1017.11
2022-09-23T03:01:30.813Z,1017.10
2022-09-23T03:02:31.056Z,1017.05
2022-09-23T03:03:31.305Z,1017.06
2022-09-23T03:04:31.554Z,1017.09
2022-09-23T03:05:31.790Z,1017.01
2022-09-23T03:06:32.141Z,1017.06
2022-09-23T03:07:32.375Z,1017.04
2022-09-23T03:08:32.588Z,1017.03
2022-09-23T03:09:32.928Z,1017.05
2022-09-23T03:10:33.362Z,1016.98
2022-09-23T03:11:33.549Z,1017.00
2022-09-23T03:12:33.875Z,1017.02
2022-09-23T03:13:34.224Z,1016.98
2022-09-23T03:14:34.547Z,1016.98
2022-09-23T03:15:34.876Z,1016.95
2022-09-23T03:16:35.244Z,1016.96
2022-09-23T03:17:35.563Z,1016.97
2022-09-23T03:18:35.904Z,1016.94
2022-09-23T03:19:36.132Z,1016.97
2022-09-23T03:20:36.479Z,1016.89
2022-09-23T03:21:36.738Z,1016.92
2022-09-23T03:22:36.970Z,1016.90
2022-09-23T03:23:37.205Z,1016.88
2022-09-23T03:24:37.441Z,1016.81
2022-09-23T03:25:37.842Z,1016.81
2022-09-23T03:26:37.909Z,1016.79
2022-09-23T03:27:38.275Z,1016.79
2022-09-23T03:28:38.667Z,1016.80
2022-09-23T03:29:38.861Z,1016.81
2022-09-23T03:30:39.079Z,1016.73
2022-09-23T03:31:39.454Z,1016.73
2022-09-23T03:32:39.659Z,1016.80
2022-09-23T03:33:39.992Z,1016.77
2022-09-23T03:34:40.369Z,1016.70
2022-09-23T03:35:40.580Z,1016.80
2022-09-23T03:36:40.921Z,1016.79
2022-09-23T03:37:41.247Z,1016.75
2022-09-23T03:38:41.594Z,1016.75
2022-09-23T03:39:41.953Z,1016.73
2022-09-23T03:40:42.281Z,1016.71
2022-09-23T03:41:42.481Z,1016.73
2022-09-23T03:42:42.702Z,1016.71
2022-09-23T03:43:43.087Z,1016.67
2022-09-23T03:44:43.332Z,1016.63
2022-09-23T03:45:44.559Z,1016.61
2022-09-23T03:46:43.803Z,1016.63
2022-09-23T03:47:44.131Z,1016.64
2022-09-23T03:48:44.463Z,1016.62
2022-09-23T03:49:44.813Z,1016.60
2022-09-23T03:50:45.142Z,1016.62
2022-09-23T03:51:45.472Z,1016.57
2022-09-23T03:52:45.832Z,1016.62
2022-09-23T03:53:46.034Z,1016.63
2022-09-23T03:54:46.372Z,1016.60
2022-09-23T03:55:46.698Z,1016.65
2022-09-23T03:56:47.037Z,1016.63
2022-09-23T03:57:47.375Z,1016.62
2022-09-23T03:58:47.582Z,1016.64
2022-09-23T03:59:47.925Z,1016.61
2022-09-23T04:00:48.196Z,1016.68
2022-09-23T04:01:48.418Z,1016.61
2022-09-23T04:02:48.766Z,1016.63
2022-09-23T04:03:49.081Z,1016.61
2022-09-23T04:04:49.468Z,1016.63
2022-09-23T04:05:49.708Z,1016.65
2022-09-23T04:06:50.096Z,1016.57
2022-09-23T04:07:50.307Z,1016.56
2022-09-23T04:08:50.725Z,1016.56
2022-09-23T04:09:50.963Z,1016.48
2022-09-23T04:10:54.776Z,1016.55
2022-09-23T04:11:51.417Z,1016.51
2022-09-23T04:12:51.788Z,1016.48
2022-09-23T04:13:51.997Z,1016.46
2022-09-23T04:14:52.365Z,1016.44
2022-09-23T04:15:52.583Z,1016.46
2022-09-23T04:16:52.940Z,1016.48
2022-09-23T04:17:53.178Z,1016.48
2022-09-23T04:18:53.914Z,1016.45
2022-09-23T04:19:53.692Z,1016.38
2022-09-23T04:20:53.937Z,1016.38
2022-09-23T04:21:54.166Z,1016.38
2022-09-23T04:22:54.529Z,1016.42
2022-09-23T04:23:54.750Z,1016.45
2022-09-23T04:24:55.088Z,1016.40
2022-09-23T04:25:55.434Z,1016.39
2022-09-23T04:26:55.768Z,1016.37
2022-09-23T04:27:56.109Z,1016.35
2022-09-23T04:28:56.441Z,1016.42
2022-09-23T04:29:56.801Z,1016.34
2022-09-23T04:30:57.017Z,1016.35
2022-09-23T04:31:57.426Z,1016.35
2022-09-23T04:32:57.668Z,1016.35
2022-09-23T04:33:58.103Z,1016.36
2022-09-23T04:34:58.162Z,1016.36
2022-09-23T04:35:58.382Z,1016.36
2022-09-23T04:36:58.743Z,1016.32
2022-09-23T04:37:58.989Z,1016.36
2022-09-23T04:38:59.362Z,1016.35
2022-09-23T04:39:59.542Z,1016.34
2022-09-23T04:40:59.890Z,1016.35
2022-09-23T04:42:00.232Z,1016.35
2022-09-23T04:43:00.484Z,1016.32
2022-09-23T04:44:00.750Z,1016.40
2022-09-23T04:45:00.961Z,1016.35
2022-09-23T04:46:01.384Z,1016.32
2022-09-23T04:47:01.676Z,1016.30
2022-09-23T04:48:01.974Z,1016.34
2022-09-23T04:49:02.273Z,1016.38
2022-09-23T04:50:02.515Z,1016.41
2022-09-23T04:51:02.761Z,1016.43
2022-09-23T04:52:02.993Z,1016.44
2022-09-23T04:53:03.243Z,1016.40
2022-09-23T04:54:03.483Z,1016.41
2022-09-23T04:55:06.069Z,1016.41
2022-09-23T04:56:05.065Z,1016.45
2022-09-23T04:57:04.374Z,1016.44
2022-09-23T04:58:04.703Z,1016.45
2022-09-23T04:59:04.975Z,1016.40
2022-09-23T05:00:05.207Z,1016.41
2022-09-23T05:01:05.567Z,1016.48
2022-09-23T05:02:05.791Z,1016.45
2022-09-23T05:03:06.046Z,1016.43
2022-09-23T05:04:06.324Z,1016.42
2022-09-23T05:05:06.586Z,1016.42
2022-09-23T05:06:06.832Z,1016.38
2022-09-23T05:07:07.080Z,1016.33
2022-09-23T05:08:07.317Z,1016.37
2022-09-23T05:09:07.844Z,1016.39
2022-09-23T05:10:07.846Z,1016.41
2022-09-23T05:11:08.096Z,1016.37
2022-09-23T05:12:08.339Z,1016.41
2022-09-23T05:13:08.587Z,1016.36
2022-09-23T05:14:08.858Z,1016.32
2022-09-23T05:15:09.115Z,1016.29
2022-09-23T05:16:09.394Z,1016.29
2022-09-23T05:17:09.639Z,1016.28
2022-09-23T05:18:09.880Z,1016.36
2022-09-23T05:19:10.214Z,1016.32
2022-09-23T05:20:10.347Z,1016.34
2022-09-23T05:21:10.607Z,1016.25
2022-09-23T05:22:10.877Z,1016.33
2022-09-23T05:23:11.190Z,1016.24
2022-09-23T05:24:11.457Z,1016.24
2022-09-23T05:25:11.709Z,1016.21
2022-09-23T05:26:12.042Z,1016.31
2022-09-23T05:27:12.311Z,1016.27
2022-09-23T05:28:12.558Z,1016.20
2022-09-23T05:29:12.837Z,1016.26
2022-09-23T05:30:13.136Z,1016.22
2022-09-23T05:31:19.332Z,1016.30
2022-09-23T05:32:14.742Z,1016.29
2022-09-23T05:33:14.050Z,1016.26
2022-09-23T05:34:14.322Z,1016.27
2022-09-23T05:35:14.579Z,1016.20
2022-09-23T05:36:14.832Z,1016.26
2022-09-23T05:37:15.092Z,1016.24
2022-09-23T05:38:15.368Z,1016.25
2022-09-23T05:39:15.731Z,1016.21
2022-09-23T05:40:15.915Z,1016.23
2022-09-23T05:41:16.156Z,1016.24
2022-09-23T05:42:16.398Z,1016.24
2022-09-23T05:43:16.662Z,1016.28
2022-09-23T05:44:16.993Z,1016.28
2022-09-23T05:45:17.219Z,1016.26
2022-09-23T05:46:17.517Z,1016.18
2022-09-23T05:47:17.825Z,1016.20
2022-09-23T05:48:18.095Z,1016.14
2022-09-23T05:49:18.352Z,1016.12
2022-09-23T05:50:18.597Z,1016.17
2022-09-23T05:51:18.873Z,1016.11
2022-09-23T05:52:19.139Z,1016.12
2022-09-23T05:53:19.411Z,1016.10
2022-09-23T05:54:19.683Z,1016.18
2022-09-23T05:55:19.952Z,1016.10
2022-09-23T05:56:20.355Z,1016.09
2022-09-23T05:57:20.495Z,1016.06
2022-09-23T05:58:20.734Z,1016.14
2022-09-23T05:59:21.083Z,1016.13
2022-09-23T06:00:21.217Z,1016.17
2022-09-23T06:01:21.597Z,1016.11
2022-09-23T06:02:21.850Z,1016.10
2022-09-23T06:03:22.178Z,1016.13
2022-09-23T06:04:22.374Z,1016.16
2022-09-23T06:05:22.638Z,1016.15
2022-09-23T06:06:22.896Z,1016.15
2022-09-23T06:07:23.168Z,1016.07
2022-09-23T06:08:23.419Z,1016.15
2022-09-23T06:09:23.674Z,1016.09
2022-09-23T06:10:23.948Z,1016.08
2022-09-23T06:11:24.217Z,1016.16
2022-09-23T06:12:24.478Z,1016.12
2022-09-23T06:13:24.751Z,1016.15
2022-09-23T06:14:25.026Z,1016.18
2022-09-23T06:15:25.290Z,1016.16
2022-09-23T06:16:25.618Z,1016.17
2022-09-23T06:17:25.859Z,1016.16
2022-09-23T06:18:26.126Z,1016.17
2022-09-23T06:19:26.386Z,1016.21
2022-09-23T06:20:26.642Z,1016.16
2022-09-23T06:21:26.901Z,1016.22
2022-09-23T06:22:27.813Z,1016.19
2022-09-23T06:23:27.499Z,1016.22
2022-09-23T06:24:31.375Z,1016.22
2022-09-23T06:25:28.100Z,1016.18
2022-09-23T06:26:28.351Z,1016.15
2022-09-23T06:27:28.631Z,1016.12
2022-09-23T06:28:28.904Z,1016.09
2022-09-23T06:29:29.165Z,1016.11
2022-09-23T06:30:29.420Z,1016.08
2022-09-23T06:31:29.747Z,1016.18
2022-09-23T06:32:29.919Z,1016.22
2022-09-23T06:33:36.627Z,1016.14
2022-09-23T06:34:36.894Z,1016.19
2022-09-23T06:35:31.711Z,1016.16
2022-09-23T06:36:42.685Z,1016.13
2022-09-23T06:37:32.371Z,1016.19
2022-09-23T06:38:31.714Z,1016.18
2022-09-23T06:39:32.015Z,1016.13
2022-09-23T06:40:32.300Z,1016.13
2022-09-23T06:41:32.524Z,1016.16
2022-09-23T06:42:32.786Z,1016.17
2022-09-23T06:43:33.035Z,1016.17
2022-09-23T06:44:33.297Z,1016.16
2022-09-23T06:45:33.566Z,1016.20
2022-09-23T06:46:34.041Z,1016.13
2022-09-23T06:47:34.175Z,1016.12
2022-09-23T06:48:34.429Z,1016.15
2022-09-23T06:49:34.713Z,1016.10
2022-09-23T06:50:34.969Z,1016.11
2022-09-23T06:51:35.214Z,1016.18
2022-09-23T06:52:35.495Z,1016.16
2022-09-23T06:53:35.807Z,1016.11
2022-09-23T06:54:36.107Z,1016.12
2022-09-23T06:55:36.366Z,1016.14
2022-09-23T06:56:39.557Z,1016.14
2022-09-23T06:57:37.498Z,1016.10
2022-09-23T06:58:37.197Z,1016.10
2022-09-23T06:59:37.476Z,1016.11
2022-09-23T07:00:37.727Z,1016.13
2022-09-23T07:01:38.207Z,1016.16
2022-09-23T07:02:38.402Z,1016.16
2022-09-23T07:03:38.659Z,1016.16
2022-09-23T07:04:38.965Z,1016.09
2022-09-23T07:05:39.218Z,1016.18
2022-09-23T07:06:39.470Z,1016.16
2022-09-23T07:07:39.782Z,1016.17
2022-09-23T07:08:40.027Z,1016.21
2022-09-23T07:09:40.291Z,1016.21
2022-09-23T07:10:40.570Z,1016.17
2022-09-23T07:11:40.836Z,1016.17
2022-09-23T07:12:41.081Z,1016.22
2022-09-23T07:13:41.354Z,1016.19
2022-09-23T07:14:41.660Z,1016.18
2022-09-23T07:15:41.976Z,1016.16
2022-09-23T07:16:42.280Z,1016.11
2022-09-23T07:17:42.550Z,1016.16
2022-09-23T07:18:42.854Z,1016.18
2022-09-23T07:19:43.142Z,1016.17
2022-09-23T07:20:43.483Z,1016.16
2022-09-23T07:21:43.744Z,1016.18
2022-09-23T07:22:43.954Z,1016.23
2022-09-23T07:23:44.282Z,1016.24
2022-09-23T07:24:44.604Z,1016.21
2022-09-23T07:25:44.925Z,1016.22
2022-09-23T07:26:45.850Z,1016.21
2022-09-23T07:27:45.623Z,1016.17
2022-09-23T07:28:45.856Z,1016.25
2022-09-23T07:29:48.910Z,1016.26
2022-09-23T07:30:57.534Z,1016.26
2022-09-23T07:31:47.712Z,1016.25
2022-09-23T07:32:49.219Z,1016.18
2022-09-23T07:33:47.401Z,1016.16
2022-09-23T07:34:48.407Z,1016.20
2022-09-23T07:35:48.024Z,1016.23
2022-09-23T07:36:48.287Z,1016.24
2022-09-23T07:37:48.564Z,1016.28
2022-09-23T07:38:48.826Z,1016.24
2022-09-23T07:39:49.104Z,1016.22
2022-09-23T07:40:49.443Z,1016.28
2022-09-23T07:41:49.711Z,1016.27
2022-09-23T07:42:49.956Z,1016.28
2022-09-23T07:43:50.232Z,1016.24
2022-09-23T07:44:50.488Z,1016.29
2022-09-23T07:45:50.788Z,1016.31
2022-09-23T07:46:51.142Z,1016.23
2022-09-23T07:47:51.270Z,1016.23
2022-09-23T07:48:51.530Z,1016.26
2022-09-23T07:49:51.801Z,1016.22
2022-09-23T07:50:52.048Z,1016.24
2022-09-23T07:51:52.338Z,1016.27
2022-09-23T07:52:52.608Z,1016.26
2022-09-23T07:53:52.914Z,1016.28
2022-09-23T07:54:53.151Z,1016.22
2022-09-23T07:55:53.434Z,1016.19
2022-09-23T07:56:53.756Z,1016.26
2022-09-23T07:57:54.023Z,1016.23
2022-09-23T07:58:54.307Z,1016.24
2022-09-23T07:59:54.543Z,1016.27
2022-09-23T08:00:54.826Z,1016.24
2022-09-23T08:01:55.168Z,1016.16
2022-09-23T08:02:55.477Z,1016.15
2022-09-23T08:03:55.755Z,1016.15
2022-09-23T08:04:56.014Z,1016.17
2022-09-23T08:05:56.293Z,1016.16
2022-09-23T08:06:56.587Z,1016.13
2022-09-23T08:07:56.845Z,1016.13
2022-09-23T08:08:57.186Z,1016.12
2022-09-23T08:09:57.454Z,1016.13
2022-09-23T08:10:57.705Z,1016.19
2022-09-23T08:11:57.957Z,1016.12
2022-09-23T08:12:58.215Z,1016.08
2022-09-23T08:13:58.559Z,1016.17
2022-09-23T08:14:58.716Z,1016.14
2022-09-23T08:15:59.668Z,1016.10
2022-09-23T08:16:59.528Z,1016.03
2022-09-23T08:17:59.532Z,1016.09
2022-09-23T08:18:59.962Z,1016.07
2022-09-23T08:20:00.123Z,1016.06
2022-09-23T08:21:00.398Z,1016.11
2022-09-23T08:22:00.682Z,1016.04
2022-09-23T08:23:00.973Z,1016.05
2022-09-23T08:24:01.240Z,1016.08
2022-09-23T08:25:01.552Z,1016.05
2022-09-23T08:26:01.830Z,1016.06
2022-09-23T08:27:02.070Z,1016.00
2022-09-23T08:28:02.332Z,1016.02
2022-09-23T08:29:02.593Z,1016.05
2022-09-23T08:30:02.904Z,1016.08
2022-09-23T08:31:03.312Z,1016.04
2022-09-23T08:32:03.561Z,1016.07
2022-09-23T08:33:03.846Z,1016.00
2022-09-23T08:34:04.149Z,1016.04
2022-09-23T08:35:04.409Z,1016.03
2022-09-23T08:36:04.684Z,1016.01
2022-09-23T08:37:05.044Z,1016.01
2022-09-23T08:38:05.319Z,1015.94
2022-09-23T08:39:05.435Z,1015.93
2022-09-23T08:40:05.752Z,1015.97
2022-09-23T08:41:06.009Z,1015.97
2022-09-23T08:42:06.285Z,1015.99
2022-09-23T08:43:06.522Z,1015.95
2022-09-23T08:44:06.830Z,1015.94
2022-09-23T08:45:07.115Z,1015.92
2022-09-23T08:46:07.428Z,1015.92
2022-09-23T08:47:07.682Z,1015.92
2022-09-23T08:48:12.712Z,1015.89
2022-09-23T08:49:09.236Z,1015.83
2022-09-23T08:50:08.437Z,1015.84
2022-09-23T08:51:08.767Z,1015.85
2022-09-23T08:52:09.067Z,1015.83
2022-09-23T08:53:09.341Z,1015.82
2022-09-23T08:54:09.640Z,1015.89
2022-09-23T08:55:09.958Z,1015.82
2022-09-23T08:56:11.197Z,1015.80
2022-09-23T08:57:10.549Z,1015.86
2022-09-23T08:58:26.762Z,1015.80
2022-09-23T08:59:12.082Z,1015.85
2022-09-23T09:00:11.299Z,1015.80
2022-09-23T09:01:11.581Z,1015.80
2022-09-23T09:02:11.891Z,1015.76
2022-09-23T09:03:12.140Z,1015.78
2022-09-23T09:04:12.776Z,1015.73
2022-09-23T09:05:12.768Z,1015.80
2022-09-23T09:06:12.923Z,1015.70
2022-09-23T09:07:35.339Z,1015.74
2022-09-23T09:08:14.392Z,1015.75
2022-09-23T09:09:13.823Z,1015.70
2022-09-23T09:10:13.972Z,1015.72
2022-09-23T09:11:14.263Z,1015.70
2022-09-23T09:12:14.537Z,1015.74
2022-09-23T09:13:14.825Z,1015.78
2022-09-23T09:14:15.560Z,1015.66
2022-09-23T09:15:15.385Z,1015.68
2022-09-23T09:16:15.729Z,1015.73
2022-09-23T09:17:15.921Z,1015.71
2022-09-23T09:18:16.440Z,1015.69
2022-09-23T09:19:16.505Z,1015.70
2022-09-23T09:20:16.669Z,1015.66
2022-09-23T09:21:16.927Z,1015.64
2022-09-23T09:22:17.196Z,1015.59
2022-09-23T09:23:17.487Z,1015.60
2022-09-23T09:24:17.786Z,1015.60
2022-09-23T09:25:18.098Z,1015.59
2022-09-23T09:26:18.347Z,1015.55
2022-09-23T09:27:18.611Z,1015.59
2022-09-23T09:28:18.890Z,1015.55
2022-09-23T09:29:36.165Z,1015.59
2022-09-23T09:30:20.573Z,1015.60
2022-09-23T09:31:19.784Z,1015.57
2022-09-23T09:32:20.050Z,1015.52
2022-09-23T09:33:20.309Z,1015.56
2022-09-23T09:34:20.571Z,1015.56
2022-09-23T09:35:20.822Z,1015.57
2022-09-23T09:36:21.108Z,1015.51
2022-09-23T09:37:21.425Z,1015.48
2022-09-23T09:38:21.661Z,1015.56
2022-09-23T09:39:26.121Z,1015.49
2022-09-23T09:40:22.339Z,1015.45
2022-09-23T09:41:22.650Z,1015.45
2022-09-23T09:42:22.835Z,1015.42
2022-09-23T09:43:23.162Z,1015.44
2022-09-23T09:44:23.455Z,1015.43
2022-09-23T09:45:23.742Z,1015.37
2022-09-23T09:46:24.049Z,1015.34
2022-09-23T09:47:24.443Z,1015.38
2022-09-23T09:48:24.584Z,1015.34
2022-09-23T09:49:24.778Z,1015.37
2022-09-23T09:50:25.035Z,1015.35
2022-09-23T09:51:25.320Z,1015.33
2022-09-23T09:52:25.738Z,1015.27
2022-09-23T09:53:25.824Z,1015.26
2022-09-23T09:54:26.093Z,1015.31
2022-09-23T09:55:26.374Z,1015.35
2022-09-23T09:56:26.683Z,1015.32
2022-09-23T09:57:28.685Z,1015.25
2022-09-23T09:58:27.320Z,1015.26
2022-09-23T09:59:27.590Z,1015.22
2022-09-23T10:00:27.860Z,1015.27
2022-09-23T10:01:28.173Z,1015.22
2022-09-23T10:02:28.403Z,1015.21
2022-09-23T10:03:28.671Z,1015.20
2022-09-23T10:04:29.087Z,1015.11
2022-09-23T10:05:29.156Z,1015.16
2022-09-23T10:06:29.471Z,1015.06
2022-09-23T10:07:29.733Z,1015.12
2022-09-23T10:08:29.989Z,1015.07
2022-09-23T10:09:30.253Z,1015.06
2022-09-23T10:10:33.251Z,1015.07
2022-09-23T10:11:30.783Z,1015.05
2022-09-23T10:12:32.067Z,1014.98
2022-09-23T10:13:31.436Z,1015.01
2022-09-23T10:14:31.638Z,1015.04
2022-09-23T10:15:31.926Z,1015.05
2022-09-23T10:16:32.418Z,1015.01
2022-09-23T10:17:32.534Z,1015.03
2022-09-23T10:18:32.865Z,1014.97
2022-09-23T10:19:33.269Z,1015.02
2022-09-23T10:20:33.468Z,1014.97
2022-09-23T10:21:33.724Z,1014.99
2022-09-23T10:22:34.055Z,1015.00
2022-09-23T10:23:34.396Z,1014.96
2022-09-23T10:24:34.657Z,1014.97
2022-09-23T10:25:35.156Z,1014.94
2022-09-23T10:26:35.269Z,1014.98
2022-09-23T10:27:35.555Z,1014.97
2022-09-23T10:28:35.877Z,1014.94
2022-09-23T10:29:36.168Z,1014.96
2022-09-23T10:30:36.553Z,1014.92
2022-09-23T10:31:36.664Z,1014.93
2022-09-23T10:32:36.931Z,1014.95
2022-09-23T10:33:37.291Z,1014.92
2022-09-23T10:34:37.521Z,1014.85
2022-09-23T10:35:37.702Z,1014.91
2022-09-23T10:36:42.378Z,1014.87
2022-09-23T10:37:39.312Z,1014.89
2022-09-23T10:38:38.633Z,1014.90
2022-09-23T10:39:38.927Z,1014.84
2022-09-23T10:40:39.270Z,1014.87
2022-09-23T10:41:39.456Z,1014.83
2022-09-23T10:42:39.709Z,1014.86
2022-09-23T10:43:40.009Z,1014.87
2022-09-23T10:44:40.251Z,1014.83
2022-09-23T10:45:42.718Z,1014.81
2022-09-23T10:46:40.851Z,1014.85
2022-09-23T10:47:41.067Z,1014.85
2022-09-23T10:48:41.416Z,1014.82
2022-09-23T10:49:41.655Z,1014.77
2022-09-23T10:50:41.915Z,1014.78
2022-09-23T10:51:42.191Z,1014.82
2022-09-23T10:52:42.567Z,1014.77
2022-09-23T10:53:42.797Z,1014.81
2022-09-23T10:54:43.048Z,1014.81
2022-09-23T10:55:43.319Z,1014.78
2022-09-23T10:56:43.624Z,1014.80
2022-09-23T10:57:43.890Z,1014.73
2022-09-23T10:58:44.152Z,1014.75
2022-09-23T10:59:44.442Z,1014.80
2022-09-23T11:00:44.701Z,1014.79
2022-09-23T11:01:45.079Z,1014.78
2022-09-23T11:02:45.205Z,1014.75
2022-09-23T11:03:45.478Z,1014.68
2022-09-23T11:04:45.843Z,1014.73
2022-09-23T11:05:46.075Z,1014.69
2022-09-23T11:06:46.373Z,1014.69
2022-09-23T11:07:47.545Z,1014.70
2022-09-23T11:08:46.869Z,1014.70
2022-09-23T11:09:47.119Z,1014.63
2022-09-23T11:10:47.408Z,1014.67
2022-09-23T11:11:47.694Z,1014.67
2022-09-23T11:12:47.973Z,1014.62
2022-09-23T11:13:52.144Z,1014.62
2022-09-23T11:14:49.753Z,1014.59
2022-09-23T11:15:48.844Z,1014.59
2022-09-23T11:16:50.155Z,1014.49
2022-09-23T11:17:49.504Z,1014.57
2022-09-23T11:18:49.668Z,1014.55
2022-09-23T11:19:50.022Z,1014.51
2022-09-23T11:20:50.234Z,1014.48
2022-09-23T11:21:50.490Z,1014.47
2022-09-23T11:22:50.769Z,1014.49
2022-09-23T11:23:51.067Z,1014.48
2022-09-23T11:24:51.271Z,1014.47
2022-09-23T11:25:51.526Z,1014.46
2022-09-23T11:26:51.784Z,1014.48
2022-09-23T11:27:52.060Z,1014.43
2022-09-23T11:28:52.323Z,1014.40
2022-09-23T11:29:52.575Z,1014.40
2022-09-23T11:30:52.947Z,1014.43
2022-09-23T11:31:56.191Z,1014.41
2022-09-23T11:32:54.339Z,1014.39
2022-09-23T11:33:53.627Z,1014.37
2022-09-23T11:34:55.047Z,1014.36
2022-09-23T11:35:54.168Z,1014.36
2022-09-23T11:36:54.438Z,1014.36
2022-09-23T11:37:54.716Z,1014.32
2022-09-23T11:38:55.745Z,1014.30
2022-09-23T11:39:55.252Z,1014.30
2022-09-23T11:40:55.580Z,1014.25
2022-09-23T11:41:55.733Z,1014.24
2022-09-23T11:42:57.464Z,1014.20
2022-09-23T11:43:56.283Z,1014.22
2022-09-23T11:44:56.736Z,1014.21
2022-09-23T11:45:56.960Z,1014.18
2022-09-23T11:46:57.219Z,1014.14
2022-09-23T11:47:57.508Z,1014.12
2022-09-23T11:48:57.773Z,1014.10
2022-09-23T11:49:58.044Z,1014.16
2022-09-23T11:50:59.100Z,1014.12
2022-09-23T11:51:58.582Z,1014.17
2022-09-23T11:52:58.856Z,1014.20
2022-09-23T11:54:01.713Z,1014.16
2022-09-23T11:54:59.512Z,1014.19
2022-09-23T11:55:59.694Z,1014.19
2022-09-23T11:57:00.122Z,1014.13
2022-09-23T11:58:00.479Z,1014.14
2022-09-23T11:59:00.713Z,1014.14
2022-09-23T12:00:01.093Z,1014.12
2022-09-23T12:01:01.645Z,1014.12
2022-09-23T12:02:13.353Z,1014.07
2022-09-23T12:03:05.858Z,1014.07
2022-09-23T12:04:12.722Z,1013.97
2022-09-23T12:05:03.585Z,1013.97
2022-09-23T12:06:02.784Z,1014.00
2022-09-23T12:07:03.098Z,1013.98
2022-09-23T12:08:03.808Z,1013.93
2022-09-23T12:09:03.629Z,1013.93